createdAt,value
2019-05-19T00:00:41.493Z,99.99
2019-05-19T00:01:41.556Z,99.99
2019-05-19T00:02:41.550Z,99.99
2019-05-19T00:03:41.566Z,99.99
2019-05-19T00:04:41.596Z,99.99
2019-05-19T00:05:41.620Z,99.99
2019-05-19T00:06:41.654Z,99.99
2019-05-19T00:07:41.675Z,99.99
2019-05-19T00:08:41.709Z,99.99
2019-05-19T00:09:41.739Z,99.99
2019-05-19T00:10:41.762Z,99.99
2019-05-19T00:11:41.786Z,99.99
2019-05-19T00:12:41.816Z,99.99
2019-05-19T00:13:41.847Z,99.99
2019-05-19T00:14:41.872Z,99.99
2019-05-19T00:16:41.932Z,99.99
2019-05-19T00:17:41.958Z,99.99
2019-05-19T00:18:41.982Z,99.99
2019-05-19T00:19:42.015Z,99.99
2019-05-19T00:20:42.040Z,99.99
2019-05-19T00:21:42.079Z,99.99
2019-05-19T00:22:42.093Z,99.99
2019-05-19T00:23:42.128Z,99.99
2019-05-19T00:24:42.151Z,99.99
2019-05-19T00:25:42.180Z,99.99
2019-05-19T00:26:42.206Z,99.99
2019-05-19T00:27:48.501Z,99.99
2019-05-19T00:28:42.270Z,99.99
2019-05-19T00:29:42.288Z,99.99
2019-05-19T00:30:42.327Z,99.99
2019-05-19T00:31:42.343Z,99.99
2019-05-19T00:32:42.432Z,99.99
2019-05-19T00:34:42.444Z,99.99
2019-05-19T00:35:42.461Z,99.99
2019-05-19T00:36:42.490Z,99.99
2019-05-19T00:37:42.511Z,99.99
2019-05-19T00:38:42.540Z,99.99
2019-05-19T00:39:42.575Z,99.99
2019-05-19T00:40:42.593Z,99.99
2019-05-19T00:41:42.631Z,99.99
2019-05-19T00:42:42.649Z,99.99
2019-05-19T00:43:42.682Z,99.99
2019-05-19T00:44:42.713Z,99.99
2019-05-19T00:45:42.732Z,99.99
2019-05-19T00:46:42.760Z,99.99
2019-05-19T00:47:42.992Z,99.99
2019-05-19T00:48:42.816Z,99.99
2019-05-19T00:49:42.843Z,99.99
2019-05-19T00:50:42.879Z,99.99
2019-05-19T00:51:42.899Z,99.99
2019-05-19T00:52:42.924Z,99.99
2019-05-19T00:53:42.955Z,99.99
2019-05-19T00:54:42.983Z,99.99
2019-05-19T00:55:43.015Z,99.99
2019-05-19T00:56:43.038Z,99.99
2019-05-19T00:57:43.066Z,99.99
2019-05-19T00:58:43.097Z,99.99
2019-05-19T00:59:43.119Z,99.99
2019-05-19T01:00:43.148Z,99.99
2019-05-19T01:01:43.175Z,99.99
2019-05-19T01:02:43.220Z,99.99
2019-05-19T01:03:43.240Z,99.99
2019-05-19T01:04:43.256Z,99.99
2019-05-19T01:05:43.286Z,99.99
2019-05-19T01:06:43.314Z,99.99
2019-05-19T01:07:43.344Z,99.99
2019-05-19T01:08:43.369Z,99.99
2019-05-19T01:09:43.401Z,99.99
2019-05-19T01:10:43.437Z,99.99
2019-05-19T01:11:43.452Z,99.99
2019-05-19T01:12:43.480Z,99.99
2019-05-19T01:13:43.509Z,99.99
2019-05-19T01:14:43.541Z,99.99
2019-05-19T01:15:43.564Z,99.99
2019-05-19T01:16:43.595Z,99.99
2019-05-19T01:17:43.623Z,99.99
2019-05-19T01:18:43.653Z,99.99
2019-05-19T01:19:55.228Z,99.99
2019-05-19T01:20:43.697Z,99.99
2019-05-19T01:21:43.726Z,99.99
2019-05-19T01:22:43.756Z,99.99
2019-05-19T01:23:43.781Z,99.99
2019-05-19T01:24:43.827Z,99.99
2019-05-19T01:25:43.837Z,99.99
2019-05-19T01:26:43.865Z,99.99
2019-05-19T01:27:43.897Z,99.99
2019-05-19T01:28:43.921Z,99.99
2019-05-19T01:29:43.951Z,99.99
2019-05-19T01:30:43.983Z,99.99
2019-05-19T01:31:44.005Z,99.99
2019-05-19T01:32:44.030Z,99.99
2019-05-19T01:33:44.058Z,99.99
2019-05-19T01:34:44.085Z,99.99
2019-05-19T01:35:44.120Z,99.99
2019-05-19T01:36:44.146Z,99.99
2019-05-19T01:37:44.170Z,99.99
2019-05-19T01:38:44.196Z,99.99
2019-05-19T01:39:44.242Z,99.99
2019-05-19T01:40:44.249Z,99.99
2019-05-19T01:41:44.283Z,99.99
2019-05-19T01:42:44.516Z,99.99
2019-05-19T01:43:44.333Z,99.99
2019-05-19T01:44:44.360Z,99.99
2019-05-19T01:45:44.387Z,99.99
2019-05-19T01:46:44.417Z,99.99
2019-05-19T01:47:44.441Z,99.99
2019-05-19T01:48:44.471Z,99.99
2019-05-19T01:49:44.499Z,99.99
2019-05-19T01:50:44.530Z,99.99
2019-05-19T01:51:44.555Z,99.99
2019-05-19T01:52:44.584Z,99.99
2019-05-19T01:53:44.609Z,99.99
2019-05-19T01:54:44.634Z,99.99
2019-05-19T01:55:44.660Z,99.99
2019-05-19T01:56:44.688Z,99.99
2019-05-19T01:57:44.720Z,99.99
2019-05-19T01:58:44.743Z,99.99
2019-05-19T01:59:44.780Z,99.99
2019-05-19T02:00:44.814Z,99.99
2019-05-19T02:01:44.828Z,99.99
2019-05-19T02:02:44.855Z,99.99
2019-05-19T02:03:44.885Z,99.99
2019-05-19T02:04:44.910Z,99.99
2019-05-19T02:05:44.935Z,99.99
2019-05-19T02:06:44.968Z,99.99
2019-05-19T02:07:44.992Z,99.99
2019-05-19T02:08:45.023Z,99.99
2019-05-19T02:09:45.046Z,99.99
2019-05-19T02:10:45.078Z,99.99
2019-05-19T02:11:45.099Z,99.99
2019-05-19T02:12:45.135Z,99.99
2019-05-19T02:13:45.154Z,99.99
2019-05-19T02:14:45.189Z,99.99
2019-05-19T02:15:45.218Z,99.99
2019-05-19T02:16:45.239Z,99.99
2019-05-19T02:17:45.264Z,99.99
2019-05-19T02:18:45.294Z,99.99
2019-05-19T02:19:45.321Z,99.99
2019-05-19T02:20:45.350Z,99.99
2019-05-19T02:21:45.379Z,99.99
2019-05-19T02:22:45.414Z,99.99
2019-05-19T02:23:45.430Z,99.99
2019-05-19T02:24:45.454Z,99.99
2019-05-19T02:25:45.483Z,99.99
2019-05-19T02:26:45.515Z,99.99
2019-05-19T02:27:45.542Z,99.99
2019-05-19T02:28:45.569Z,99.99
2019-05-19T02:29:45.599Z,99.99
2019-05-19T02:30:45.623Z,99.99
2019-05-19T02:31:45.649Z,99.99
2019-05-19T02:32:45.675Z,99.99
2019-05-19T02:33:45.703Z,99.99
2019-05-19T02:34:45.734Z,99.99
2019-05-19T02:35:45.757Z,99.99
2019-05-19T02:36:45.784Z,99.99
2019-05-19T02:37:45.814Z,99.99
2019-05-19T02:38:45.847Z,99.99
2019-05-19T02:39:45.866Z,99.99
2019-05-19T02:40:45.893Z,99.99
2019-05-19T02:41:45.925Z,99.99
2019-05-19T02:42:45.951Z,99.99
2019-05-19T02:43:45.983Z,99.99
2019-05-19T02:44:46.004Z,99.99
2019-05-19T02:45:46.041Z,99.99
2019-05-19T02:46:46.064Z,99.99
2019-05-19T02:47:46.092Z,99.99
2019-05-19T02:48:46.114Z,99.99
2019-05-19T02:49:46.138Z,99.99
2019-05-19T02:50:52.484Z,99.99
2019-05-19T02:51:46.192Z,99.99
2019-05-19T02:52:46.221Z,99.99
2019-05-19T02:53:46.251Z,99.99
2019-05-19T02:54:46.275Z,99.99
2019-05-19T02:55:46.307Z,99.99
2019-05-19T02:56:46.335Z,99.99
2019-05-19T02:57:46.370Z,99.99
2019-05-19T02:58:46.387Z,99.99
2019-05-19T02:59:46.413Z,99.99
2019-05-19T03:00:46.437Z,99.99
2019-05-19T03:01:46.466Z,99.99
2019-05-19T03:02:46.495Z,99.99
2019-05-19T03:03:46.536Z,99.99
2019-05-19T03:04:46.546Z,99.99
2019-05-19T03:05:46.581Z,99.99
2019-05-19T03:06:46.605Z,99.99
2019-05-19T03:07:46.633Z,99.99
2019-05-19T03:08:46.666Z,99.99
2019-05-19T03:09:46.688Z,99.99
2019-05-19T03:10:46.722Z,99.99
2019-05-19T03:11:46.737Z,99.99
2019-05-19T03:12:46.766Z,99.99
2019-05-19T03:13:46.797Z,99.99
2019-05-19T03:14:46.821Z,99.99
2019-05-19T03:15:46.846Z,99.99
2019-05-19T03:16:46.875Z,99.99
2019-05-19T03:17:46.906Z,99.99
2019-05-19T03:18:46.934Z,99.99
2019-05-19T03:19:46.957Z,99.99
2019-05-19T03:20:46.983Z,99.99
2019-05-19T03:21:47.011Z,99.99
2019-05-19T03:22:47.051Z,99.99
2019-05-19T03:23:47.067Z,99.99
2019-05-19T03:24:47.092Z,99.99
2019-05-19T03:25:47.121Z,99.99
2019-05-19T03:26:47.149Z,99.99
2019-05-19T03:27:47.173Z,99.99
2019-05-19T03:28:47.201Z,99.99
2019-05-19T03:29:47.228Z,99.99
2019-05-19T03:30:47.265Z,99.99
2019-05-19T03:31:47.283Z,99.99
2019-05-19T03:32:47.312Z,99.99
2019-05-19T03:33:47.337Z,99.99
2019-05-19T03:34:47.375Z,99.99
2019-05-19T03:35:47.398Z,99.99
2019-05-19T03:36:47.422Z,99.99
2019-05-19T03:37:47.447Z,99.99
2019-05-19T03:38:47.475Z,99.99
2019-05-19T03:39:47.508Z,99.99
2019-05-19T03:40:47.529Z,99.99
2019-05-19T03:41:47.562Z,99.99
2019-05-19T03:42:47.584Z,99.99
2019-05-19T03:43:47.612Z,99.99
2019-05-19T03:44:47.639Z,99.99
2019-05-19T03:45:47.670Z,99.99
2019-05-19T03:46:47.699Z,99.99
2019-05-19T03:47:47.727Z,99.99
2019-05-19T03:48:47.753Z,99.99
2019-05-19T03:49:47.774Z,99.99
2019-05-19T03:50:47.801Z,99.99
2019-05-19T03:51:47.829Z,99.99
2019-05-19T03:52:47.856Z,99.99
2019-05-19T03:53:47.895Z,99.99
2019-05-19T03:54:47.963Z,99.99
2019-05-19T03:55:47.934Z,99.99
2019-05-19T03:56:47.971Z,99.99
2019-05-19T03:57:47.991Z,99.99
2019-05-19T03:58:48.026Z,99.99
2019-05-19T03:59:48.046Z,99.99
2019-05-19T04:00:48.074Z,99.99
2019-05-19T04:01:48.102Z,99.99
2019-05-19T04:02:48.140Z,99.99
2019-05-19T04:03:48.154Z,99.99
2019-05-19T04:04:48.182Z,99.99
2019-05-19T04:05:48.215Z,99.99
2019-05-19T04:06:48.237Z,99.99
2019-05-19T04:07:48.266Z,99.99
2019-05-19T04:08:48.289Z,99.99
2019-05-19T04:09:48.317Z,99.99
2019-05-19T04:10:48.342Z,99.99
2019-05-19T04:11:48.369Z,99.99
2019-05-19T04:12:48.403Z,99.99
2019-05-19T04:13:48.425Z,99.99
2019-05-19T04:14:48.457Z,99.99
2019-05-19T04:15:48.481Z,99.99
2019-05-19T04:16:48.521Z,99.99
2019-05-19T04:17:48.534Z,99.99
2019-05-19T04:18:48.561Z,99.99
2019-05-19T04:19:48.585Z,99.99
2019-05-19T04:20:48.613Z,99.99
2019-05-19T04:21:49.746Z,99.99
2019-05-19T04:22:48.669Z,99.99
2019-05-19T04:23:48.706Z,99.99
2019-05-19T04:24:48.727Z,99.99
2019-05-19T04:25:48.756Z,99.99
2019-05-19T04:26:48.778Z,99.99
2019-05-19T04:27:48.804Z,99.99
2019-05-19T04:28:48.833Z,99.99
2019-05-19T04:29:48.861Z,99.99
2019-05-19T04:30:48.888Z,99.99
2019-05-19T04:31:48.918Z,99.99
2019-05-19T04:32:48.940Z,99.99
2019-05-19T04:33:48.974Z,99.99
2019-05-19T04:34:48.997Z,99.99
2019-05-19T04:35:49.021Z,99.99
2019-05-19T04:36:49.048Z,99.99
2019-05-19T04:37:49.086Z,99.99
2019-05-19T04:38:49.110Z,99.99
2019-05-19T04:39:49.130Z,99.99
2019-05-19T04:40:49.159Z,99.99
2019-05-19T04:41:49.186Z,99.99
2019-05-19T04:42:49.214Z,99.99
2019-05-19T04:43:49.239Z,99.99
2019-05-19T04:44:49.267Z,99.99
2019-05-19T04:45:49.300Z,99.99
2019-05-19T04:46:49.325Z,99.99
2019-05-19T04:47:49.348Z,99.99
2019-05-19T04:48:49.375Z,99.99
2019-05-19T04:49:49.412Z,99.99
2019-05-19T04:50:49.432Z,99.99
2019-05-19T04:52:06.100Z,99.99
2019-05-19T04:52:49.483Z,99.99
2019-05-19T04:53:49.510Z,99.99
2019-05-19T04:54:49.539Z,99.99
2019-05-19T04:55:49.563Z,99.99
2019-05-19T04:56:49.595Z,99.99
2019-05-19T04:57:49.627Z,99.99
2019-05-19T04:58:49.647Z,99.99
2019-05-19T04:59:49.679Z,99.99
2019-05-19T05:00:49.703Z,99.99
2019-05-19T05:01:49.729Z,99.99
2019-05-19T05:02:49.757Z,99.99
2019-05-19T05:03:49.790Z,99.99
2019-05-19T05:04:49.809Z,99.99
2019-05-19T05:05:49.844Z,99.99
2019-05-19T05:07:57.470Z,99.99
2019-05-19T05:08:57.499Z,99.99
2019-05-19T05:09:57.532Z,99.99
2019-05-19T05:10:57.560Z,99.99
2019-05-19T05:11:57.584Z,99.99
2019-05-19T05:12:57.608Z,99.99
2019-05-19T05:13:57.637Z,99.99
2019-05-19T05:14:57.665Z,99.99
2019-05-19T05:15:57.705Z,99.99
2019-05-19T05:16:57.722Z,99.99
2019-05-19T05:17:57.746Z,99.99
2019-05-19T05:18:57.776Z,99.99
2019-05-19T05:19:57.800Z,99.99
2019-05-19T05:20:57.829Z,99.99
2019-05-19T05:21:57.858Z,99.99
2019-05-19T05:22:57.885Z,99.99
2019-05-19T05:23:57.917Z,99.99
2019-05-19T05:24:57.946Z,99.99
2019-05-19T05:25:57.970Z,99.99
2019-05-19T05:26:57.994Z,99.99
2019-05-19T05:27:58.031Z,99.99
2019-05-19T05:28:58.051Z,99.99
2019-05-19T05:29:58.079Z,99.99
2019-05-19T05:30:58.108Z,99.99
2019-05-19T05:31:58.133Z,98.86
2019-05-19T05:32:58.161Z,97.61
2019-05-19T05:33:58.192Z,97.23
2019-05-19T05:34:58.220Z,97.23
2019-05-19T05:35:58.258Z,97.80
2019-05-19T05:36:58.276Z,97.42
2019-05-19T05:37:58.307Z,96.66
2019-05-19T05:38:58.330Z,96.94
2019-05-19T05:39:58.361Z,96.66
2019-05-19T05:40:58.385Z,96.37
2019-05-19T05:41:58.416Z,96.32
2019-05-19T05:42:58.462Z,95.98
2019-05-19T05:43:58.469Z,95.31
2019-05-19T05:44:58.507Z,94.69
2019-05-19T05:45:58.527Z,94.12
2019-05-19T05:46:58.562Z,93.63
2019-05-19T05:47:58.590Z,93.93
2019-05-19T05:48:58.612Z,94.59
2019-05-19T05:49:58.641Z,93.83
2019-05-19T05:50:58.671Z,93.63
2019-05-19T05:51:58.696Z,93.44
2019-05-19T05:52:58.727Z,93.06
2019-05-19T05:53:58.756Z,92.58
2019-05-19T05:54:58.780Z,92.72
2019-05-19T05:55:58.811Z,92.63
2019-05-19T05:56:58.839Z,92.63
2019-05-19T05:57:58.867Z,92.15
2019-05-19T05:58:58.895Z,91.81
2019-05-19T05:59:58.925Z,91.62
2019-05-19T06:00:58.952Z,91.05
2019-05-19T06:01:58.984Z,90.47
2019-05-19T06:02:59.017Z,90.47
2019-05-19T06:03:59.040Z,89.79
2019-05-19T06:04:59.077Z,90.08
2019-05-19T06:05:59.096Z,89.36
2019-05-19T06:06:59.136Z,89.22
2019-05-19T06:07:59.155Z,89.22
2019-05-19T06:08:59.183Z,88.55
2019-05-19T06:09:59.210Z,87.82
2019-05-19T06:10:59.238Z,87.82
2019-05-19T06:11:59.267Z,88.02
2019-05-19T06:12:59.306Z,87.92
2019-05-19T06:13:59.325Z,88.11
2019-05-19T06:14:59.361Z,87.54
2019-05-19T06:15:59.384Z,87.25
2019-05-19T06:16:59.421Z,86.87
2019-05-19T06:17:59.442Z,87.19
2019-05-19T06:18:59.475Z,86.52
2019-05-19T06:19:59.501Z,85.75
2019-05-19T06:20:59.532Z,84.94
2019-05-19T06:21:59.557Z,83.97
2019-05-19T06:22:59.589Z,83.87
2019-05-19T06:23:59.618Z,84.26
2019-05-19T06:24:59.650Z,83.69
2019-05-19T06:25:59.690Z,83.69
2019-05-19T06:26:59.706Z,83.20
2019-05-19T06:27:59.734Z,82.76
2019-05-19T06:28:59.771Z,81.90
2019-05-19T06:29:59.798Z,81.61
2019-05-19T06:30:59.821Z,80.84
2019-05-19T06:31:59.854Z,80.79
2019-05-19T06:32:59.884Z,79.63
2019-05-19T06:33:59.913Z,79.19
2019-05-19T06:34:59.939Z,78.81
2019-05-19T06:35:59.970Z,77.94
2019-05-19T06:36:59.999Z,77.59
2019-05-19T06:38:00.032Z,77.50
2019-05-19T06:39:00.221Z,77.01
2019-05-19T06:40:00.098Z,76.92
2019-05-19T06:41:00.122Z,76.25
2019-05-19T06:42:00.180Z,75.99
2019-05-19T06:43:00.198Z,75.13
2019-05-19T06:44:03.217Z,75.03
2019-05-19T06:45:00.242Z,74.16
2019-05-19T06:46:00.275Z,73.58
2019-05-19T06:47:00.309Z,74.16
2019-05-19T06:48:00.338Z,74.61
2019-05-19T06:49:00.368Z,75.38
2019-05-19T06:50:00.403Z,75.63
2019-05-19T06:51:00.435Z,75.82
2019-05-19T06:52:00.457Z,76.59
2019-05-19T06:53:13.337Z,77.13
2019-05-19T06:54:00.520Z,77.61
2019-05-19T06:55:00.623Z,77.61
2019-05-19T06:56:00.582Z,77.81
2019-05-19T06:57:00.613Z,77.90
2019-05-19T06:58:00.648Z,77.75
2019-05-19T06:59:00.677Z,76.88
2019-05-19T07:00:00.708Z,76.63
2019-05-19T07:01:00.746Z,76.28
2019-05-19T07:02:00.769Z,74.36
2019-05-19T07:03:00.800Z,73.72
2019-05-19T07:04:00.833Z,73.43
2019-05-19T07:05:00.868Z,72.60
2019-05-19T07:06:00.898Z,72.85
2019-05-19T07:07:00.937Z,72.85
2019-05-19T07:08:00.958Z,72.47
2019-05-19T07:09:00.989Z,73.33
2019-05-19T07:10:01.021Z,73.68
2019-05-19T07:11:01.052Z,74.80
2019-05-19T07:12:01.089Z,75.73
2019-05-19T07:13:01.112Z,76.50
2019-05-19T07:14:03.052Z,76.50
2019-05-19T07:15:01.187Z,76.69
2019-05-19T07:16:01.232Z,76.21
2019-05-19T07:17:01.244Z,76.59
2019-05-19T07:18:01.279Z,77.17
2019-05-19T07:19:01.312Z,77.65
2019-05-19T07:20:01.343Z,77.84
2019-05-19T07:21:01.367Z,77.46
2019-05-19T07:22:01.398Z,76.31
2019-05-19T07:23:01.486Z,76.21
2019-05-19T07:24:01.461Z,76.31
2019-05-19T07:25:01.523Z,76.50
2019-05-19T07:26:01.532Z,76.78
2019-05-19T07:27:01.552Z,76.59
2019-05-19T07:28:01.585Z,76.34
2019-05-19T07:29:01.720Z,75.82
2019-05-19T07:30:01.648Z,76.11
2019-05-19T07:31:01.853Z,76.44
2019-05-19T07:32:01.837Z,76.44
2019-05-19T07:33:01.744Z,76.44
2019-05-19T07:34:01.806Z,76.15
2019-05-19T07:35:01.802Z,76.44
2019-05-19T07:36:01.834Z,76.53
2019-05-19T07:37:01.865Z,76.06
2019-05-19T07:38:01.943Z,76.63
2019-05-19T07:39:01.923Z,76.01
2019-05-19T07:40:01.969Z,75.63
2019-05-19T07:41:01.987Z,76.06
2019-05-19T07:42:02.025Z,74.80
2019-05-19T07:43:02.050Z,74.32
2019-05-19T07:44:02.087Z,75.05
2019-05-19T07:45:02.109Z,76.11
2019-05-19T07:46:02.147Z,76.50
2019-05-19T07:47:02.173Z,76.11
2019-05-19T07:48:02.206Z,76.69
2019-05-19T07:49:02.234Z,75.38
2019-05-19T07:50:02.271Z,75.28
2019-05-19T07:51:02.406Z,75.67
2019-05-19T07:52:02.336Z,75.44
2019-05-19T07:53:02.362Z,76.21
2019-05-19T07:54:02.392Z,76.11
2019-05-19T07:55:02.421Z,76.01
2019-05-19T07:56:02.449Z,76.11
2019-05-19T07:57:02.484Z,77.26
2019-05-19T07:58:02.517Z,77.26
2019-05-19T07:59:02.545Z,76.50
2019-05-19T08:00:02.808Z,77.26
2019-05-19T08:01:02.758Z,76.98
2019-05-19T08:02:02.635Z,77.08
2019-05-19T08:03:02.697Z,76.78
2019-05-19T08:04:02.694Z,76.44
2019-05-19T08:05:02.725Z,76.92
2019-05-19T08:06:03.141Z,76.18
2019-05-19T08:07:02.810Z,75.99
2019-05-19T08:08:02.820Z,74.78
2019-05-19T08:09:02.845Z,73.82
2019-05-19T08:10:02.877Z,73.08
2019-05-19T08:11:02.914Z,73.31
2019-05-19T08:12:02.940Z,71.58
2019-05-19T08:13:03.051Z,71.19
2019-05-19T08:14:03.001Z,70.51
2019-05-19T08:15:03.032Z,70.70
2019-05-19T08:16:03.060Z,70.94
2019-05-19T08:17:03.179Z,70.64
2019-05-19T08:18:03.147Z,69.23
2019-05-19T08:19:03.155Z,68.49
2019-05-19T08:20:03.192Z,67.43
2019-05-19T08:21:03.220Z,67.43
2019-05-19T08:22:03.252Z,66.78
2019-05-19T08:23:59.254Z,67.75
2019-05-19T08:24:45.868Z,66.53
2019-05-19T08:25:45.920Z,65.11
2019-05-19T08:26:45.930Z,63.89
2019-05-19T08:27:45.967Z,63.53
2019-05-19T08:28:45.998Z,62.56
2019-05-19T08:29:46.030Z,62.59
2019-05-19T08:30:46.123Z,62.82
2019-05-19T08:31:46.099Z,64.59
2019-05-19T08:32:46.130Z,66.50
2019-05-19T08:33:46.173Z,67.72
2019-05-19T08:34:46.200Z,67.46
2019-05-19T08:35:46.231Z,66.72
2019-05-19T08:36:46.267Z,65.30
2019-05-19T08:37:46.299Z,64.17
2019-05-19T08:38:46.332Z,63.40
2019-05-19T08:39:46.368Z,63.21
2019-05-19T08:40:46.415Z,64.17
2019-05-19T08:41:46.435Z,62.82
2019-05-19T08:42:46.466Z,63.01
2019-05-19T08:43:46.511Z,63.04
2019-05-19T08:44:46.538Z,62.24
2019-05-19T08:45:46.577Z,62.37
2019-05-19T08:46:47.624Z,61.33
2019-05-19T08:47:46.641Z,61.14
2019-05-19T08:48:46.674Z,61.17
2019-05-19T08:49:46.712Z,59.33
2019-05-19T08:50:46.746Z,59.03
2019-05-19T08:51:46.787Z,60.46
2019-05-19T08:52:46.817Z,61.01
2019-05-19T08:53:46.853Z,62.82
2019-05-19T08:54:49.510Z,63.56
2019-05-19T08:55:46.924Z,64.11
2019-05-19T08:56:46.955Z,65.14
2019-05-19T08:57:46.994Z,64.98
2019-05-19T08:58:47.054Z,64.37
2019-05-19T08:59:47.062Z,65.05
2019-05-19T09:00:47.103Z,66.11
2019-05-19T09:01:47.134Z,65.34
2019-05-19T09:02:47.175Z,65.43
2019-05-19T09:03:47.204Z,65.37
2019-05-19T09:04:47.237Z,63.46
2019-05-19T09:05:48.005Z,61.69
2019-05-19T09:06:47.319Z,61.40
2019-05-19T09:07:47.350Z,62.46
2019-05-19T09:08:47.381Z,61.17
2019-05-19T09:09:47.474Z,60.81
2019-05-19T09:10:47.446Z,58.90
2019-05-19T09:11:47.971Z,58.41
2019-05-19T09:12:47.516Z,57.37
2019-05-19T09:13:47.558Z,57.47
2019-05-19T09:14:47.585Z,55.94
2019-05-19T09:15:47.623Z,56.07
2019-05-19T09:16:47.656Z,55.49
2019-05-19T09:17:47.702Z,55.13
2019-05-19T09:18:47.735Z,54.64
2019-05-19T09:19:47.824Z,55.17
2019-05-19T09:20:47.803Z,56.89
2019-05-19T09:21:47.839Z,57.73
2019-05-19T09:22:47.899Z,58.22
2019-05-19T09:23:47.912Z,57.37
2019-05-19T09:24:47.945Z,56.76
2019-05-19T09:25:47.982Z,58.31
2019-05-19T09:26:48.016Z,58.03
2019-05-19T09:27:48.056Z,57.54
2019-05-19T09:29:35.845Z,57.06
2019-05-19T09:30:35.880Z,57.64
2019-05-19T09:31:35.920Z,57.96
2019-05-19T09:32:35.955Z,56.82
2019-05-19T09:33:39.225Z,55.78
2019-05-19T09:34:36.027Z,54.93
2019-05-19T09:35:36.064Z,54.08
2019-05-19T09:36:38.726Z,53.50
2019-05-19T09:37:36.143Z,53.86
2019-05-19T09:38:36.174Z,53.30
2019-05-19T09:39:36.220Z,53.40
2019-05-19T09:40:36.255Z,53.79
2019-05-19T09:42:36.645Z,53.14
2019-05-19T09:43:36.369Z,53.28
2019-05-19T09:44:36.401Z,54.88
2019-05-19T09:45:36.441Z,55.82
2019-05-19T09:46:36.474Z,56.86
2019-05-19T09:47:36.565Z,55.94
2019-05-19T09:48:36.549Z,55.03
2019-05-19T09:49:36.596Z,54.83
2019-05-19T09:50:36.677Z,53.89
2019-05-19T09:51:36.662Z,53.30
2019-05-19T09:52:36.705Z,53.38
2019-05-19T09:53:36.738Z,56.04
2019-05-19T09:54:44.615Z,57.42
2019-05-19T09:55:36.815Z,58.55
2019-05-19T09:56:36.854Z,58.41
2019-05-19T09:57:36.899Z,57.54
2019-05-19T09:58:36.932Z,57.18
2019-05-19T09:59:36.966Z,55.78
2019-05-19T10:00:38.014Z,55.46
2019-05-19T10:01:37.040Z,55.49
2019-05-19T10:02:37.076Z,55.58
2019-05-19T10:03:37.120Z,55.13
2019-05-19T10:04:37.158Z,55.10
2019-05-19T10:05:37.211Z,56.16
2019-05-19T10:06:37.301Z,58.43
2019-05-19T10:07:37.265Z,57.60
2019-05-19T10:08:37.314Z,60.68
2019-05-19T10:09:37.356Z,59.90
2019-05-19T10:10:37.376Z,59.87
2019-05-19T10:11:37.416Z,60.39
2019-05-19T10:12:37.457Z,62.07
2019-05-19T10:13:37.924Z,60.55
2019-05-19T10:14:37.529Z,58.70
2019-05-19T10:15:37.567Z,60.42
2019-05-19T10:16:37.604Z,60.78
2019-05-19T10:17:37.641Z,62.07
2019-05-19T10:18:37.675Z,62.27
2019-05-19T10:19:37.712Z,63.01
2019-05-19T10:20:37.748Z,63.89
2019-05-19T10:21:37.787Z,64.24
2019-05-19T10:22:37.873Z,65.34
2019-05-19T10:23:37.874Z,65.30
2019-05-19T10:24:37.904Z,64.04
2019-05-19T10:25:37.932Z,63.43
2019-05-19T10:26:37.967Z,62.01
2019-05-19T10:27:38.001Z,61.33
2019-05-19T10:28:38.050Z,60.97
2019-05-19T10:29:38.087Z,59.94
2019-05-19T10:30:38.108Z,58.34
2019-05-19T10:31:38.292Z,57.21
2019-05-19T10:32:38.187Z,57.08
2019-05-19T10:33:38.216Z,56.26
2019-05-19T10:34:38.264Z,55.13
2019-05-19T10:35:38.287Z,53.33
2019-05-19T10:36:38.332Z,53.30
2019-05-19T10:37:38.362Z,56.28
2019-05-19T10:38:38.406Z,59.52
2019-05-19T10:39:38.434Z,61.14
2019-05-19T10:40:38.474Z,61.30
2019-05-19T10:41:38.511Z,62.88
2019-05-19T10:42:38.542Z,64.21
2019-05-19T10:43:38.575Z,64.31
2019-05-19T10:44:38.615Z,64.50
2019-05-19T10:45:38.652Z,65.75
2019-05-19T10:46:38.687Z,64.89
2019-05-19T10:47:38.720Z,65.59
2019-05-19T10:48:38.756Z,64.72
2019-05-19T10:49:38.792Z,64.24
2019-05-19T10:50:38.832Z,63.76
2019-05-19T10:51:38.862Z,62.37
2019-05-19T10:52:38.897Z,60.07
2019-05-19T10:53:38.931Z,58.77
2019-05-19T10:54:38.965Z,57.18
2019-05-19T10:55:39.003Z,56.14
2019-05-19T10:56:39.034Z,55.00
2019-05-19T10:57:39.068Z,54.90
2019-05-19T10:58:39.101Z,53.47
2019-05-19T10:59:39.139Z,52.84
2019-05-19T11:00:39.173Z,51.67
2019-05-19T11:01:39.210Z,51.41
2019-05-19T11:02:39.249Z,50.43
2019-05-19T11:03:39.282Z,50.58
2019-05-19T11:04:39.315Z,49.83
2019-05-19T11:05:39.352Z,49.44
2019-05-19T11:06:39.385Z,49.54
2019-05-19T11:07:39.431Z,48.66
2019-05-19T11:08:39.467Z,49.80
2019-05-19T11:09:39.497Z,50.07
2019-05-19T11:10:39.531Z,50.09
2019-05-19T11:11:39.575Z,49.32
2019-05-19T11:12:39.612Z,48.71
2019-05-19T11:13:39.671Z,49.51
2019-05-19T11:14:39.687Z,52.06
2019-05-19T11:15:39.724Z,53.30
2019-05-19T11:16:39.758Z,53.88
2019-05-19T11:17:39.788Z,55.02
2019-05-19T11:18:39.825Z,55.28
2019-05-19T11:19:39.863Z,55.21
2019-05-19T11:20:39.904Z,53.17
2019-05-19T11:21:39.938Z,54.41
2019-05-19T11:22:39.981Z,54.90
2019-05-19T11:23:40.044Z,55.38
2019-05-19T11:24:40.048Z,55.67
2019-05-19T11:25:51.055Z,55.87
2019-05-19T11:26:40.120Z,55.57
2019-05-19T11:27:40.156Z,55.26
2019-05-19T11:28:40.193Z,55.26
2019-05-19T11:29:40.238Z,55.16
2019-05-19T11:30:40.271Z,55.74
2019-05-19T11:31:40.299Z,56.13
2019-05-19T11:32:40.338Z,55.64
2019-05-19T11:33:40.375Z,56.03
2019-05-19T11:34:40.405Z,55.83
2019-05-19T11:35:40.441Z,56.81
2019-05-19T11:36:40.477Z,55.90
2019-05-19T11:37:40.518Z,55.74
2019-05-19T11:38:40.550Z,56.00
2019-05-19T11:39:40.594Z,56.68
2019-05-19T11:40:40.626Z,56.85
2019-05-19T11:41:40.667Z,57.33
2019-05-19T11:42:40.690Z,57.04
2019-05-19T11:43:40.725Z,57.01
2019-05-19T11:44:40.767Z,57.71
2019-05-19T11:45:40.795Z,56.46
2019-05-19T11:46:40.827Z,55.58
2019-05-19T11:47:40.870Z,55.32
2019-05-19T11:48:40.901Z,55.52
2019-05-19T11:49:40.935Z,54.58
2019-05-19T11:50:42.152Z,53.27
2019-05-19T11:51:41.002Z,52.52
2019-05-19T11:52:41.037Z,51.38
2019-05-19T11:53:41.073Z,51.70
2019-05-19T11:54:41.109Z,51.33
2019-05-19T11:55:41.141Z,50.16
2019-05-19T11:56:41.174Z,50.04
2019-05-19T11:57:41.210Z,50.92
2019-05-19T11:58:41.242Z,51.57
2019-05-19T11:59:41.278Z,52.35
2019-05-19T12:00:41.314Z,52.62
2019-05-19T12:01:41.348Z,53.37
2019-05-19T12:02:41.381Z,54.41
2019-05-19T12:03:41.418Z,54.50
2019-05-19T12:04:41.453Z,55.26
2019-05-19T12:05:41.491Z,55.26
2019-05-19T12:06:41.517Z,55.54
2019-05-19T12:07:41.562Z,55.52
2019-05-19T12:08:41.590Z,55.90
2019-05-19T12:09:41.624Z,55.90
2019-05-19T12:10:41.657Z,55.81
2019-05-19T12:11:41.698Z,56.29
2019-05-19T12:12:41.735Z,56.59
2019-05-19T12:13:41.769Z,56.29
2019-05-19T12:14:41.795Z,55.81
2019-05-19T12:15:41.830Z,56.20
2019-05-19T12:16:42.063Z,54.80
2019-05-19T12:17:41.895Z,53.20
2019-05-19T12:18:41.928Z,52.59
2019-05-19T12:19:41.964Z,52.23
2019-05-19T12:20:42.004Z,51.31
2019-05-19T12:21:42.033Z,49.78
2019-05-19T12:22:42.064Z,48.56
2019-05-19T12:23:42.102Z,47.90
2019-05-19T12:24:42.151Z,46.95
2019-05-19T12:25:42.170Z,46.47
2019-05-19T12:26:42.204Z,46.39
2019-05-19T12:27:42.238Z,45.81
2019-05-19T12:28:42.275Z,45.29
2019-05-19T12:29:42.306Z,46.03
2019-05-19T12:30:42.342Z,48.32
2019-05-19T12:31:42.378Z,48.17
2019-05-19T12:32:42.492Z,46.34
2019-05-19T12:33:51.535Z,46.54
2019-05-19T12:34:42.485Z,46.42
2019-05-19T12:35:42.519Z,46.30
2019-05-19T12:36:42.552Z,46.86
2019-05-19T12:37:42.588Z,47.42
2019-05-19T12:38:42.625Z,47.71
2019-05-19T12:39:42.661Z,48.39
2019-05-19T12:40:42.692Z,47.78
2019-05-19T12:41:42.728Z,48.73
2019-05-19T12:42:42.766Z,49.29
2019-05-19T12:43:42.800Z,49.77
2019-05-19T12:44:42.840Z,50.04
2019-05-19T12:45:42.895Z,50.43
2019-05-19T12:46:42.908Z,50.31
2019-05-19T12:47:42.941Z,51.09
2019-05-19T12:48:42.982Z,51.57
2019-05-19T12:49:43.008Z,50.82
2019-05-19T12:50:43.042Z,49.99
2019-05-19T12:51:43.078Z,48.18
2019-05-19T12:52:43.111Z,46.64
2019-05-19T12:53:43.146Z,47.03
2019-05-19T12:54:43.186Z,46.55
2019-05-19T12:55:43.218Z,46.81
2019-05-19T12:56:43.250Z,47.74
2019-05-19T12:57:43.283Z,48.49
2019-05-19T12:58:43.320Z,49.27